Portada
METAR-TAF:

METAR-TAF

Aeroports :

Tarakan, Indonèsia

latitud: 03-19-36N, longitud: 117-33-56E, altitud: 6 m

Observació

L'informe es va fer fa 34 minuts, a les 06:30 UTC
Vent 3 kt del Sud/Sud-Oest
Temperatura 29°C
Humitat 79%
Pressió 1009 hPa
Visibilitat 10 km o més
Núvols disperses a una alçada de 2500 ft

METAR: WAQQ 220630Z 21003KT 9999 SCT025 29/25 Q1009 METAR

Hora: 14:04 (07:04 UTC)

Pronòstic

L'informe es va fer fa 2 hores i 4 minuts, a les 05:00 UTC
Pronòstic vàlid del 22 a les 06 UTC al 22 a les 18 UTC
Vent 3 kt del Sud
Visibilitat: 9000 m
Núvols disperses a una alçada de 1500 ft

TAF: WAQQ 220500Z 2206/2218 19003KT 9000 SCT015

Observacions i pronòstics meteorològics de més de 4000 aeroports (METAR i TAF).

Les estacions disponibles són els punts grocs i vermells al mapa.

Posi el ratolí al punt desitjat per veure el nom de l'estació.

Feu clic per veure les observacions i els pronòstics meteorològics.

Per canviar el mapa: feu clic els botons verds amb una creu de color negre per apropar; al botó verd amb un guió per allunyar la imatge; o en les fletxes verdes per a mapes adjacents.


METAR-TAF: